»·PEaware :: N8012B KSNA-KSNA

N8012B :: KSNA-KSNA

FLIGHT INFORMATION

Flight Status: Arrived
Operator: Privately registered:
United States
More flights under this callsign
Pilot: Lucas S. (32477)
Aircraft: CESSNA 172 SKYHAWK
(C172)
More flights by this aircraft type
Origin: KSNA John Wayne-Orange Co
United States
Destination: KSNA John Wayne-Orange Co
United States
More flights between these airports :: More routes between these airports
Route: SLI
File this flight plan on PilotEdge
Remarks:
Altitude:
(Current/Filed)
3,000ft
Speed:
(Current/Filed)
100kts
Departed: 19-Nov-20 04:57 PM
Arrived: 19-Nov-20 05:30 PM
Distance/Time
Traveled:
0nm/0:33
Distance/Time
To Go:
Arrived

Flight Plot

Page will automatically refresh every two minutes.


Map Options




Map Legend


Flown Route
Filed Route
Departure Airport
Arrival Airport
Navaid (VOR, NDB)
Fix

Horizontal Profiles

Position Reports

Time Latitude Longitude Heading Altitude Ground
Speed
19-Nov-20 16:32 33.682368 -117.860264 117 60ft 0kts
19-Nov-20 16:34 33.682368 -117.860264 117 60ft 0kts
19-Nov-20 16:35 33.682368 -117.860264 117 60ft 0kts
19-Nov-20 16:36 33.682368 -117.860264 117 60ft 0kts
19-Nov-20 16:37 33.682368 -117.860264 117 60ft 0kts
19-Nov-20 16:38 33.682368 -117.860264 117 60ft 0kts
19-Nov-20 16:39 33.682368 -117.860264 117 60ft 0kts
19-Nov-20 16:40 33.682368 -117.860264 117 60ft 0kts
19-Nov-20 16:41 33.682368 -117.860264 117 60ft 0kts
19-Nov-20 16:42 33.682368 -117.860264 117 60ft 0kts
19-Nov-20 16:48 33.682368 -117.860264 117 60ft 0kts
19-Nov-20 16:49 33.682368 -117.860264 117 60ft 0kts
19-Nov-20 16:49 33.682368 -117.860264 117 60ft 0kts
19-Nov-20 16:51 33.682368 -117.860264 117 60ft 0kts
19-Nov-20 16:51 33.682401 -117.860128 332 60ft 4kts
19-Nov-20 16:53 33.680647 -117.863091 300 60ft 0kts
19-Nov-20 16:53 33.680647 -117.863091 300 60ft 0kts
19-Nov-20 16:54 33.680647 -117.863091 300 60ft 0kts
19-Nov-20 16:55 33.680800 -117.863410 300 60ft 12kts
19-Nov-20 16:56 33.667954 -117.873849 221 693ft 73kts
19-Nov-20 16:57 33.655122 -117.893269 230 1725ft 73kts
19-Nov-20 16:58 33.640597 -117.915377 231 2070ft 110kts
19-Nov-20 16:59 33.625367 -117.941116 267 2102ft 107kts
19-Nov-20 17:00 33.646680 -117.956333 344 2974ft 106kts
19-Nov-20 17:01 33.679282 -117.964508 26 2947ft 125kts
19-Nov-20 17:02 33.676400 -117.939475 169 2942ft 115kts
19-Nov-20 17:03 33.650205 -117.930284 158 2892ft 101kts
19-Nov-20 17:04 33.658907 -117.918384 352 2775ft 107kts
19-Nov-20 17:05 33.684191 -117.914627 12 2885ft 101kts
19-Nov-20 17:06 33.710042 -117.909426 3 2937ft 101kts
19-Nov-20 17:07 33.734843 -117.900519 22 2965ft 103kts
19-Nov-20 17:08 33.757373 -117.887980 23 2987ft 101kts
19-Nov-20 17:09 33.779663 -117.876063 26 2973ft 105kts
19-Nov-20 17:10 33.801445 -117.864908 26 2968ft 108kts
19-Nov-20 17:11 33.823274 -117.853051 21 2960ft 106kts
19-Nov-20 17:12 33.845220 -117.841590 25 2933ft 107kts
19-Nov-20 17:13 33.867107 -117.829629 24 2952ft 105kts
19-Nov-20 17:14 33.888909 -117.817498 25 2977ft 104kts
19-Nov-20 17:15 33.911183 -117.806391 20 2927ft 109kts
19-Nov-20 17:16 33.934147 -117.796607 20 2903ft 109kts
19-Nov-20 17:17 33.935238 -117.774765 131 2873ft 108kts
19-Nov-20 17:18 33.916474 -117.757131 181 2902ft 106kts
19-Nov-20 17:19 33.892197 -117.757196 175 2951ft 101kts
19-Nov-20 17:20 33.868644 -117.756426 177 2982ft 102kts
19-Nov-20 17:21 33.845999 -117.759841 213 2928ft 107kts
19-Nov-20 17:22 33.826046 -117.776429 200 2978ft 104kts
19-Nov-20 17:23 33.804056 -117.788486 207 2870ft 109kts
19-Nov-20 17:24 33.784775 -117.801640 198 2360ft 112kts
19-Nov-20 17:25 33.765485 -117.811971 209 1969ft 106kts
19-Nov-20 17:26 33.746647 -117.823969 207 1536ft 104kts
19-Nov-20 17:27 33.720019 -117.841128 197 881ft 101kts
19-Nov-20 17:28 33.690044 -117.859740 205 302ft 68kts
19-Nov-20 17:29 33.676496 -117.868328 206 60ft 27kts
19-Nov-20 17:30 33.674386 -117.868467 152 60ft 0kts
19-Nov-20 17:31 33.673905 -117.867588 107 60ft 20kts
19-Nov-20 17:32 33.680079 -117.863301 28 60ft 30kts
19-Nov-20 17:33 33.680784 -117.861671 71 60ft 0kts
19-Nov-20 17:34 33.680784 -117.861671 71 60ft 0kts

Navigation Log

Ident Type
Flight plan parsing failed, navigation log unavailable